Time;durP1;ratioP1;P1;durP2;ratioP2;P2;SDS_P1;SDS_P2;PMS_P1;PMS_P2;Temp;Humidity;BMP_temperature;BMP_pressure;BME280_temperature;BME280_humidity;BME280_pressure;Samples;Min_cycle;Max_cycle;Signal;HPM_P1;HPM_P2
2022/03/28 10:30:58;;;;;;;;;41.25;34.00;;;;;19.64;41.30;101908.78;6256015;22;47321;-84
2022/03/28 14:13:22;;;;;;;;;32.25;27.75;;;;;26.48;18.98;101534.16;6277329;22;45352;-87
2022/03/28 14:42:10;;;;;;;;;26.50;21.25;;;;;25.63;19.13;101516.41;6247928;22;46406;-83
2022/03/28 14:45:05;;;;;;;;;23.25;21.75;;;;;25.55;19.05;101505.16;6122696;23;45633;-82
2022/03/28 14:51:04;;;;;;;;;24.25;22.00;;;;;25.54;19.39;101496.22;6234354;22;45257;-86
2022/03/28 14:54:27;;;;;;;;;;;;;;;;;;;;;
2022/03/28 14:57:25;;;;;;;;;;;;;;;;;;;;;
2022/03/28 15:04:17;;;;;;;;;24.00;20.25;;;;;25.36;19.48;101468.41;6141963;23;44683;-82
2022/03/28 15:45:03;;;;;;;;;24.00;20.00;;;;;24.95;19.22;101414.88;6036178;23;45234;-87
2022/03/28 18:38:12;;;;;;;;;;;;;;;;;;;;;
2022/03/28 18:41:05;;;;;;;;;24.75;21.50;;;;;20.23;24.13;101264.72;6236369;22;46459;-81
2022/03/28 18:45:18;;;;;;;;;;;;;;;;;;;;;
2022/03/28 19:51:52;;;;;;;;;28.75;26.00;;;;;19.16;26.98;101247.78;6219331;22;45760;-81
2022/03/28 19:54:19;;;;;;;;;32.75;28.75;;;;;19.16;27.51;101253.13;6262776;22;45385;-80
2022/03/28 19:57:28;;;;;;;;;;;;;;;;;;;;;
2022/03/28 19:59:43;;;;;;;;;29.75;26.25;;;;;19.12;27.37;101254.16;6300414;22;45296;-80
2022/03/28 20:02:46;;;;;;;;;29.50;27.50;;;;;19.05;27.44;101250.78;6312697;22;45514;-81
2022/03/28 20:05:54;;;;;;;;;;;;;;;;;;;;;
2022/03/28 20:08:23;;;;;;;;;30.00;26.50;;;;;18.93;27.89;101236.03;6306142;22;71607;-79
2022/03/28 20:10:54;;;;;;;;;29.50;28.00;;;;;18.97;27.74;101255.47;6281380;22;46985;-80
2022/03/28 20:13:22;;;;;;;;;26.00;23.50;;;;;18.94;28.11;101248.44;6283745;22;45336;-81
2022/03/28 20:15:58;;;;;;;;;30.75;26.00;;;;;18.87;28.04;101241.56;6310769;22;45394;-81
2022/03/28 20:18:26;;;;;;;;;33.00;28.25;;;;;18.85;27.99;101240.72;6309509;22;45438;-80
2022/03/28 20:20:52;;;;;;;;;26.00;24.25;;;;;18.81;28.05;101235.53;6278740;22;47045;-80
2022/03/28 20:23:18;;;;;;;;;32.25;30.00;;;;;18.75;28.22;101223.25;6281737;22;45662;-79
2022/03/28 20:25:46;;;;;;;;;28.50;26.00;;;;;18.78;28.15;101236.50;6281555;22;45564;-81
2022/03/28 20:28:16;;;;;;;;;28.25;25.00;;;;;18.73;28.02;101227.72;6280191;22;45688;-81
2022/03/28 20:30:46;;;;;;;;;24.00;23.25;;;;;18.75;28.63;101233.03;6280851;22;46372;-80
2022/03/28 20:33:14;;;;;;;;;32.50;28.00;;;;;18.69;28.10;101228.75;6281628;22;45597;-80
2022/03/28 20:35:50;;;;;;;;;30.25;26.50;;;;;18.65;28.45;101227.94;6280994;22;45393;-81
2022/03/28 20:38:18;;;;;;;;;26.25;22.50;;;;;18.66;28.62;101231.50;6280919;22;45360;-80
2022/03/28 20:40:43;;;;;;;;;27.50;24.75;;;;;18.62;28.72;101232.50;6278152;22;48352;-81
2022/03/28 20:43:09;;;;;;;;;27.50;26.25;;;;;18.56;29.12;101222.03;6281258;22;45551;-80
2022/03/28 20:45:42;;;;;;;;;29.00;24.00;;;;;18.56;29.01;101225.56;6280181;22;45482;-81
2022/03/28 20:48:08;;;;;;;;;29.75;27.50;;;;;18.46;28.89;101203.59;6277480;22;45404;-79
2022/03/28 20:50:36;;;;;;;;;26.50;24.75;;;;;18.50;28.83;101218.59;6305261;22;45442;-79
2022/03/28 20:53:02;;;;;;;;;28.00;26.25;;;;;18.46;29.02;101208.94;6278338;22;45710;-80
2022/03/28 20:56:06;;;;;;;;;;;;;;;;;;;;;
2022/03/28 20:58:42;;;;;;;;;;;;;;;;;;;;;
2022/03/28 21:01:09;;;;;;;;;31.50;26.25;;;;;18.29;29.49;101208.56;6305951;22;75630;-79
2022/03/28 21:03:40;;;;;;;;;31.75;29.25;;;;;18.26;29.74;101208.66;6308977;22;45292;-78
2022/03/28 21:06:14;;;;;;;;;35.00;28.50;;;;;18.24;29.27;101216.69;6281435;22;45415;-80
2022/03/28 21:08:46;;;;;;;;;30.25;25.00;;;;;18.19;29.85;101202.59;6280217;22;45419;-79
2022/03/28 21:11:11;;;;;;;;;29.50;25.75;;;;;18.14;29.90;101191.19;6276968;22;47622;-79
2022/03/28 21:13:37;;;;;;;;;27.50;25.75;;;;;18.09;30.18;101190.44;6308706;22;45752;-78
2022/03/28 21:16:13;;;;;;;;;35.00;27.25;;;;;18.12;29.86;101194.81;6310771;22;45454;-79
2022/03/28 21:18:41;;;;;;;;;29.25;26.75;;;;;18.01;30.32;101182.66;6279593;22;45971;-79
2022/03/28 21:21:09;;;;;;;;;30.75;23.75;;;;;18.01;30.29;101185.31;6281211;22;46327;-78
2022/03/28 21:23:35;;;;;;;;;28.25;24.50;;;;;17.97;30.24;101174.81;6307444;22;45706;-80
2022/03/28 21:26:01;;;;;;;;;27.25;25.00;;;;;17.95;30.36;101180.16;6307026;22;45491;-79
2022/03/28 21:28:28;;;;;;;;;26.25;22.75;;;;;17.94;30.25;101174.91;6281553;22;45514;-79
2022/03/28 21:30:57;;;;;;;;;28.75;24.25;;;;;17.91;30.27;101175.84;6309206;22;46018;-78
2022/03/28 21:33:23;;;;;;;;;28.25;23.50;;;;;17.86;30.20;101161.78;6279697;22;45418;-78
2022/03/28 21:35:50;;;;;;;;;26.25;26.00;;;;;17.81;30.48;101158.38;6282027;22;45436;-79
2022/03/28 21:38:17;;;;;;;;;36.25;27.75;;;;;17.82;30.57;101160.97;6282460;22;45284;-78
2022/03/28 21:40:42;;;;;;;;;32.25;27.50;;;;;17.77;30.91;101162.00;6306236;22;45722;-79
2022/03/28 21:43:08;;;;;;;;;29.50;24.75;;;;;17.68;30.70;101155.13;6278444;22;45417;-79
2022/03/28 21:45:34;;;;;;;;;25.25;20.75;;;;;17.69;30.56;101156.00;6283830;22;44831;-79
2022/03/28 21:48:02;;;;;;;;;30.75;26.75;;;;;17.61;30.65;101145.53;6283330;22;45595;-79
2022/03/28 21:50:28;;;;;;;;;28.75;24.00;;;;;17.64;30.88;101153.44;6282662;22;46621;-79
2022/03/28 21:52:56;;;;;;;;;28.50;26.00;;;;;17.53;30.98;101139.53;6283432;22;45472;-79
2022/03/28 21:55:22;;;;;;;;;32.00;27.00;;;;;17.53;30.82;101139.53;6283281;22;45331;-79
2022/03/28 21:57:48;;;;;;;;;31.00;26.50;;;;;17.58;31.04;101157.16;6281682;22;45466;-78
2022/03/28 22:00:21;;;;;;;;;30.50;26.25;;;;;17.56;31.00;101156.34;6309649;22;45603;-79
2022/03/28 22:02:47;;;;;;;;;28.50;27.25;;;;;17.49;30.96;101137.91;6281317;22;45605;-79
2022/03/28 22:05:12;;;;;;;;;22.75;22.50;;;;;17.45;31.20;101137.06;6280885;22;45336;-79
2022/03/28 22:07:38;;;;;;;;;30.50;25.75;;;;;17.46;31.28;101137.97;6282096;22;45578;-78
2022/03/28 22:10:04;;;;;;;;;27.00;26.00;;;;;17.43;31.44;101130.94;6281816;22;48092;-78
2022/03/28 22:12:33;;;;;;;;;31.50;24.75;;;;;17.45;31.43;101147.72;6283846;22;45926;-79
2022/03/28 22:14:58;;;;;;;;;29.50;28.00;;;;;17.37;31.52;101131.09;6310345;22;45471;-77
2022/03/28 22:17:28;;;;;;;;;27.25;25.00;;;;;17.38;31.42;101143.50;6283208;22;45479;-79
2022/03/28 22:19:59;;;;;;;;;27.25;26.00;;;;;17.29;31.67;101125.94;6280786;22;47019;-79
2022/03/28 22:22:49;;;;;;;;;;;;;;;;;;;;;
2022/03/28 23:19:36;;;;;;;;;;;;;;;;;;;;;
2022/03/28 23:30:25;;;;;;;;;;;;;;;;;;;;;
2022/03/28 23:36:43;;;;;;;;;35.25;32.25;;;;;16.88;33.91;101071.13;5863465;24;45349;-80
2022/03/28 23:43:47;;;;;;;;;34.75;30.50;;;;;16.90;34.37;101075.50;5931298;23;45869;-80
2022/03/28 23:46:07;;;;;;;;;35.00;30.00;;;;;16.85;34.18;101060.56;5927464;23;45762;-81
2022/03/28 23:49:22;;;;;;;;;34.00;27.00;;;;;16.89;33.98;101064.88;6024534;23;45700;-81
2022/03/28 23:51:47;;;;;;;;;30.75;27.25;;;;;16.90;34.34;101059.53;6015120;23;45619;-79
2022/03/28 23:54:13;;;;;;;;;34.50;31.00;;;;;16.87;34.03;101054.31;6210153;22;47963;-79
2022/03/28 23:56:39;;;;;;;;;32.75;28.25;;;;;16.87;33.91;101050.78;6283026;22;45618;-79
2022/03/28 23:59:04;;;;;;;;;37.00;30.75;;;;;16.89;34.28;101047.19;6307842;22;45275;-79
